Date,TemperatureHighF,TemperatureAvgF,TemperatureLowF,DewpointHighF,DewpointAvgF,DewpointLowF,HumidityHigh,HumidityAvg,HumidityLow,PressureMaxIn,PressureMinIn,WindSpeedMaxMPH,WindSpeedAvgMPH,GustSpeedMaxMPH,PrecipitationSumIn
2013-1-1,32.5,27.4,15.7,31.6,23.8,13.0,98,87,70,30.17,30.04,5,2,8,0.00
2013-1-2,26.0,16.6,10.4,16.5,12.3,8.8,95,84,56,30.29,30.15,4,1,8,0.00
2013-1-3,31.0,20.6,7.9,23.7,15.3,6.1,94,81,54,30.32,30.22,9,4,11,0.00
2013-1-4,32.2,27.5,22.4,23.6,20.5,17.5,83,75,64,30.33,30.25,11,6,18,0.00
2013-1-5,38.3,28.4,15.6,29.4,22.8,14.2,95,80,62,30.41,30.17,8,3,10,0.05
2013-1-6,37.5,33.6,26.8,33.6,29.1,23.6,94,84,73,30.29,30.01,8,5,13,0.07
2013-1-7,35.5,30.0,24.8,27.7,25.7,22.3,94,84,68,30.50,30.28,6,2,7,0.01
2013-1-8,45.0,32.8,21.3,33.5,27.4,20.1,96,81,64,30.37,30.26,5,2,5,0.01
2013-1-9,46.4,39.8,32.3,40.1,34.1,28.6,95,80,68,30.52,30.20,9,4,11,0.05
2013-1-10,41.2,34.3,26.1,32.2,29.7,25.5,98,84,66,30.58,30.19,5,2,9,0.00
2013-1-11,60.2,50.8,40.8,54.7,46.8,32.8,98,86,73,30.18,29.89,10,4,17,0.42
2013-1-12,63.7,57.5,51.8,61.3,55.6,48.7,99,93,83,30.03,29.82,7,4,9,0.00
2013-1-13,63.8,56.9,37.4,61.5,54.7,36.4,98,93,83,30.04,29.73,10,6,18,0.42
2013-1-14,37.4,28.4,24.4,36.1,24.8,21.7,95,86,80,30.45,30.05,5,3,8,0.00
2013-1-15,32.2,28.0,22.9,25.4,23.2,21.2,93,82,72,30.42,30.10,5,2,8,0.00
2013-1-16,35.0,32.0,30.0,29.5,27.3,25.4,92,83,71,30.10,29.96,8,3,10,0.00
2013-1-17,36.8,33.0,23.7,30.7,27.4,16.2,88,80,68,30.35,30.08,8,2,11,0.00
2013-1-18,34.8,26.2,15.9,26.1,18.0,12.9,90,72,53,30.54,30.22,11,5,17,0.00
2013-1-19,51.7,40.5,32.6,30.4,26.7,24.5,76,59,38,30.22,29.87,15,10,24,0.00
2013-1-20,44.4,30.7,23.2,34.9,19.9,14.5,74,64,50,30.21,29.83,11,6,25,0.00
2013-1-21,23.0,18.3,9.2,17.9,11.0,-0.5,87,73,52,30.22,30.05,10,5,17,0.00
2013-1-22,13.1,9.3,5.3,2.0,0.1,-2.3,73,66,56,30.38,30.22,9,5,17,0.00
2013-1-23,20.3,14.4,8.5,14.5,5.2,1.0,90,67,47,30.38,30.12,8,4,11,0.00
2013-1-24,21.0,15.5,10.6,15.3,10.5,7.0,91,80,64,30.61,30.13,6,3,11,0.00
2013-1-25,21.9,18.4,15.1,19.9,12.9,7.2,92,79,65,30.52,30.07,4,3,8,0.00
2013-1-26,27.4,23.9,13.3,22.5,19.3,10.0,92,83,67,30.48,30.14,5,2,8,0.00
2013-1-27,34.7,23.2,10.4,28.7,17.1,8.3,92,78,61,30.53,30.28,5,2,7,0.08
2013-1-28,50.2,42.9,32.3,49.2,41.9,30.8,99,96,93,30.24,30.01,10,6,15,0.34
2013-1-29,64.2,56.7,49.3,57.2,53.3,49.0,100,89,75,30.05,29.62,11,6,18,0.01
2013-1-30,63.9,54.6,34.2,57.1,50.7,29.6,98,87,77,29.61,29.21,12,8,28,0.67
2013-1-31,34.1,25.1,17.0,30.1,19.7,13.8,93,80,67,29.96,29.40,16,8,28,0.00
2013-2-1,16.5,12.0,7.3,12.8,5.5,2.2,85,75,66,30.41,29.97,9,6,16,0.00
2013-2-2,25.6,18.9,9.0,23.8,15.7,5.0,94,87,79,30.37,30.03,9,4,13,0.00
2013-2-3,24.4,20.1,16.2,21.9,16.5,11.6,91,86,72,30.12,29.94,8,3,15,0.00
2013-2-4,28.6,22.3,12.9,27.4,19.4,11.0,96,89,66,30.13,29.88,7,2,5,0.00
2013-2-5,31.1,27.6,23.7,28.9,24.4,21.8,96,88,73,30.01,29.89,6,2,8,0.00
2013-2-6,36.3,29.3,20.4,29.1,22.1,15.8,92,75,51,30.33,30.01,5,2,7,0.05
2013-2-7,47.6,34.7,21.1,34.4,26.9,16.7,87,74,56,30.27,29.84,4,2,8,0.01
2013-2-8,45.0,33.8,25.4,39.3,29.2,19.5,95,83,73,30.32,29.77,10,6,20,0.18
2013-2-9,35.6,26.3,17.4,23.1,19.7,15.8,94,77,57,30.47,30.32,7,2,10,0.00
2013-2-10,50.9,38.2,24.9,42.1,27.1,19.3,86,65,45,30.32,29.83,12,4,17,0.00
2013-2-11,51.8,45.2,36.7,47.5,38.0,26.7,95,77,60,29.96,29.73,15,9,16,0.00
2013-2-12,39.7,33.0,28.3,27.0,25.4,24.0,84,74,60,29.97,29.93,1,0,1,0.00
2013-2-13,32.2,28.9,22.9,28.0,26.2,21.6,97,90,80,29.93,29.77,4,1,5,0.00
2013-2-14,44.6,34.1,24.8,39.1,31.4,23.6,97,90,76,29.98,29.84,9,5,14,0.00
2013-2-15,34.5,30.2,25.5,30.1,27.2,22.1,93,88,80,30.14,29.97,6,2,11,0.00
2013-2-16,28.2,21.4,15.0,23.1,17.0,6.3,96,84,62,30.13,30.01,7,2,11,0.00
2013-2-17,23.4,16.9,11.6,13.8,10.3,5.4,92,76,58,30.29,30.09,6,3,15,0.00
2013-2-18,49.9,33.7,13.1,35.0,21.8,10.0,88,63,49,30.30,29.78,11,5,16,0.00
2013-2-19,44.7,30.8,19.7,40.4,26.9,15.1,97,86,75,30.07,29.64,17,9,19,0.14
2013-2-20,21.3,19.2,16.1,17.3,13.5,10.1,89,78,69,30.32,30.07,9,5,13,0.00
2013-2-21,26.9,22.9,20.0,19.5,17.3,14.4,89,79,71,30.39,30.24,6,3,13,0.00
2013-2-22,40.6,32.7,24.6,38.1,29.7,18.6,98,89,77,30.24,29.95,9,4,13,0.02
2013-2-23,39.2,34.6,28.3,32.3,28.9,24.8,93,80,62,30.00,29.90,7,2,10,0.00
2013-2-24,33.7,29.6,26.3,25.5,23.2,21.2,88,77,64,30.18,29.94,7,2,14,0.00
2013-2-25,44.2,33.0,21.3,29.3,25.5,19.8,96,75,52,30.24,30.01,5,2,7,0.00
2013-2-26,42.5,36.7,31.8,41.7,32.9,25.1,97,87,69,30.01,29.48,9,6,21,0.74
2013-2-27,42.9,38.0,33.3,41.8,36.1,31.2,96,93,85,29.68,29.49,11,8,18,0.17
2013-2-28,35.8,33.7,31.5,34.3,32.2,29.6,97,94,90,29.92,29.65,7,4,16,0.05
2013-3-1,32.3,30.0,26.7,30.0,25.8,20.9,92,84,76,30.07,29.92,6,3,10,0.00
2013-3-2,28.8,26.2,24.5,24.3,22.7,21.4,92,87,76,30.08,30.02,6,3,11,0.00
2013-3-3,29.1,23.9,19.2,21.9,19.1,16.5,93,82,66,30.10,30.03,5,2,11,0.00
2013-3-4,39.4,27.1,15.6,24.0,19.1,14.4,96,74,44,30.20,30.08,4,1,6,0.00
2013-3-5,38.9,34.0,30.1,31.5,27.4,23.3,96,77,61,30.11,29.58,7,4,13,0.03
2013-3-6,37.5,33.9,31.8,32.9,31.5,28.1,98,91,83,30.22,29.58,6,4,11,0.19
2013-3-7,40.4,34.9,31.0,32.8,29.7,27.7,88,82,69,30.37,30.20,6,3,7,0.00
2013-3-8,44.4,35.3,27.1,32.2,28.3,25.0,92,76,57,30.48,30.37,5,2,9,0.00
2013-3-9,55.4,41.0,25.8,37.0,30.5,24.1,94,69,45,30.41,30.08,6,2,11,0.00
2013-3-10,70.2,58.3,47.3,41.0,35.7,30.2,68,44,29,30.07,29.83,11,4,14,0.01
2013-3-11,62.2,51.4,40.6,51.1,43.9,35.2,95,78,39,29.84,29.55,12,5,12,0.68
2013-3-12,39.5,35.6,29.7,33.8,30.9,28.3,96,83,74,30.02,29.79,9,5,12,0.00
2013-3-13,32.6,29.7,26.1,31.3,24.9,17.8,97,82,67,30.27,29.97,10,5,15,0.00
2013-3-14,40.5,30.4,22.5,24.9,20.5,17.5,82,68,49,30.33,30.17,7,3,16,0.00
2013-3-15,48.7,38.4,28.4,41.1,31.8,22.5,96,77,65,30.17,29.85,7,3,10,0.14
2013-3-16,48.7,40.4,30.9,45.8,38.9,28.3,98,94,88,30.03,29.62,7,2,11,0.06
2013-3-17,36.7,32.7,30.7,29.1,27.3,25.3,92,81,67,30.19,30.03,6,3,11,0.00
2013-3-18,49.6,38.8,31.3,49.1,37.0,25.8,99,93,78,30.11,29.61,9,6,17,0.13
2013-3-19,38.8,33.5,28.2,35.5,24.7,19.6,90,71,52,30.04,29.78,13,8,20,0.00
2013-3-20,33.2,29.5,22.0,20.9,17.7,12.6,74,61,53,30.03,29.93,9,6,14,0.00
2013-3-21,29.0,23.7,17.9,22.4,15.8,10.5,81,71,64,30.01,29.94,8,4,13,0.00
2013-3-22,41.3,30.0,20.7,24.0,19.7,16.9,86,67,44,30.07,30.00,8,3,16,0.00
2013-3-23,45.5,33.5,20.9,27.0,23.1,18.6,92,68,43,30.10,29.98,5,2,7,0.00
2013-3-24,37.5,33.1,29.4,28.8,25.2,23.3,93,73,60,29.99,29.46,10,5,16,0.00
2013-3-25,34.9,32.0,30.1,32.8,30.7,29.2,98,95,89,29.88,29.41,6,3,14,0.08
2013-3-26,40.9,35.1,31.5,31.9,30.2,26.6,97,83,57,30.18,29.88,8,4,15,0.14
2013-3-27,42.9,36.9,32.5,31.5,28.8,22.9,91,74,47,30.26,30.16,9,5,15,0.00
2013-3-28,47.9,38.4,29.6,31.5,27.3,23.6,82,65,47,30.32,30.24,8,4,13,0.00
2013-3-29,47.3,33.8,26.4,32.0,27.0,24.1,93,78,46,30.32,30.29,5,1,8,0.00
2013-3-30,55.7,42.4,25.4,36.2,28.6,24.4,98,64,34,30.26,29.97,6,2,10,0.00
2013-3-31,54.7,45.7,42.4,46.3,33.0,-99.9,95,70,48,29.97,29.72,9,3,15,0.04
2013-4-1,47.6,39.0,30.7,42.1,25.5,16.8,83,59,42,30.11,29.74,8,5,18,0.00
2013-4-2,41.8,32.1,21.7,20.4,18.1,15.4,83,58,39,30.27,30.11,8,3,13,0.00
2013-4-3,44.0,32.5,23.8,22.0,16.3,13.8,68,52,30,30.44,30.27,8,2,13,0.00
2013-4-4,53.4,38.3,24.9,21.0,16.4,11.5,70,44,20,30.40,29.99,5,2,7,0.00
2013-4-5,53.8,39.7,27.2,36.4,25.6,20.3,93,59,32,30.18,29.97,8,2,18,0.00
2013-4-6,58.8,44.9,31.0,24.8,20.1,11.7,70,40,22,30.27,29.92,8,4,16,0.00
2013-4-7,72.2,59.7,53.0,47.0,33.4,-99.9,62,42,28,29.95,29.82,14,7,25,0.00
2013-4-8,70.7,60.7,48.1,55.3,48.8,39.8,83,66,54,29.97,29.84,13,5,17,0.00
2013-4-9,80.7,67.7,52.0,59.3,55.4,50.0,96,67,43,30.05,29.86,15,5,21,0.00
2013-4-10,81.0,69.0,58.4,66.3,60.4,56.2,98,75,57,29.90,29.73,15,6,21,0.38
2013-4-11,65.8,58.5,48.8,62.5,57.0,47.8,99,95,85,29.83,29.50,7,2,21,0.72
2013-4-12,58.1,47.4,41.6,58.1,43.6,34.2,100,87,69,29.89,29.44,11,5,14,0.32
2013-4-13,49.6,43.5,33.2,39.2,35.8,31.6,94,74,63,30.05,29.89,11,6,17,0.00
2013-4-14,64.7,48.5,32.4,44.5,38.0,31.1,96,70,43,30.14,29.92,5,2,10,0.00
2013-4-15,70.1,61.6,52.4,55.6,49.1,40.2,71,64,55,30.00,29.90,8,4,10,0.00
2013-4-16,75.6,63.4,55.6,63.3,56.8,51.9,98,80,62,30.13,29.94,9,5,13,0.28
2013-4-17,66.2,58.4,52.0,59.9,55.5,51.3,99,90,80,30.20,29.99,5,3,11,0.29
2013-4-18,83.5,71.5,61.1,64.9,59.1,54.1,92,68,37,30.00,29.64,18,8,23,0.00
2013-4-19,66.5,46.0,39.5,60.5,39.4,30.8,94,78,65,29.90,29.35,14,9,22,0.38
2013-4-20,45.4,39.2,35.0,33.1,29.5,25.1,90,69,49,30.38,29.90,11,6,20,0.00
2013-4-21,52.7,40.9,26.2,30.6,27.2,22.6,88,60,37,30.59,30.43,6,2,13,0.00
2013-4-22,67.4,52.2,35.5,42.1,35.4,27.8,75,54,36,30.43,30.16,7,2,7,0.00
2013-4-23,70.4,59.7,46.1,50.3,39.7,31.5,61,48,38,30.16,29.87,11,4,14,0.00
2013-4-24,63.2,51.2,34.1,55.5,46.6,33.3,97,85,63,30.19,29.73,8,4,11,0.88
2013-4-25,54.9,43.4,32.0,40.0,34.2,27.2,98,73,47,30.38,30.18,12,4,15,0.01
2013-4-26,61.1,47.1,30.2,39.9,33.4,28.7,95,62,36,30.48,30.36,4,1,12,0.00
2013-4-27,70.1,55.1,39.9,46.1,37.0,32.5,84,55,27,30.37,30.11,6,2,9,0.00
2013-4-28,63.6,57.6,53.2,59.6,53.9,45.8,98,88,65,30.08,29.81,5,3,9,0.55
2013-4-29,64.9,59.7,55.5,57.8,56.3,53.6,99,89,72,29.96,29.85,4,2,6,0.61
2013-4-30,75.5,62.5,47.8,59.4,54.2,47.5,100,77,51,30.07,29.96,7,2,10,0.00
2013-5-1,80.7,68.2,54.8,61.7,56.2,51.9,91,67,43,30.20,30.05,5,2,8,0.00
2013-5-2,75.7,66.8,58.7,57.3,54.1,50.4,86,64,51,30.23,30.08,5,2,9,0.00
2013-5-3,76.8,67.8,59.1,56.1,47.7,37.5,88,53,26,30.11,29.99,8,4,17,0.00
2013-5-4,70.8,64.2,54.7,49.6,45.4,41.4,69,51,43,30.05,29.96,8,5,14,0.00
2013-5-5,73.3,61.9,50.9,46.1,43.0,35.3,79,53,31,30.01,29.90,7,3,14,0.00
2013-5-6,69.7,60.9,55.8,57.9,49.2,34.7,93,67,36,29.98,29.92,4,2,6,0.01
2013-5-7,69.3,61.9,55.0,60.6,56.4,52.7,96,83,69,29.96,29.90,7,2,11,0.04
2013-5-8,70.5,62.5,55.9,58.5,54.6,52.2,92,76,59,29.96,29.89,4,2,7,0.00
2013-5-9,80.5,65.4,49.3,59.9,53.4,46.9,99,70,32,29.98,29.91,5,2,6,0.00
2013-5-10,71.8,63.4,59.1,64.5,60.7,57.0,98,91,70,29.93,29.75,14,4,14,1.24
2013-5-11,61.8,52.0,44.9,61.2,49.0,40.7,98,90,77,29.94,29.77,9,3,13,0.02
2013-5-12,51.0,44.6,37.7,39.8,34.7,31.1,96,70,47,30.12,29.95,8,4,19,0.00
2013-5-13,56.1,42.1,33.0,37.9,33.4,29.4,95,75,37,30.17,30.10,5,1,8,0.00
2013-5-14,75.2,56.3,36.1,57.2,43.7,35.0,98,66,43,30.16,29.80,10,4,16,0.00
2013-5-15,86.4,75.9,64.3,61.7,59.8,56.8,82,59,37,29.81,29.71,8,4,12,0.00
2013-5-16,79.1,71.1,61.8,63.2,57.5,46.5,97,65,34,29.91,29.75,5,1,7,0.02
2013-5-17,82.1,67.6,57.5,66.6,60.7,55.4,100,82,42,30.06,29.94,5,1,8,0.01
2013-5-18,81.0,67.7,59.1,66.5,59.5,52.6,96,76,53,30.06,29.95,3,1,7,0.08
2013-5-19,80.6,71.2,60.3,69.3,64.5,59.4,98,80,59,29.99,29.88,5,2,11,0.00
2013-5-20,86.1,74.6,64.4,72.7,67.9,63.8,99,81,55,29.96,29.83,8,3,11,0.00
2013-5-21,85.7,76.8,69.3,68.7,65.4,60.7,95,70,44,29.87,29.74,10,4,16,0.00
2013-5-22,80.3,72.8,64.1,65.9,63.1,61.4,94,73,54,29.79,29.66,11,6,16,0.07
2013-5-23,71.8,61.8,47.5,63.8,57.7,44.7,97,87,62,30.02,29.73,7,4,13,0.19
2013-5-24,57.6,48.3,41.9,45.0,40.3,37.7,92,75,53,30.32,30.02,8,4,16,0.00
2013-5-25,63.4,50.2,35.5,47.3,40.5,34.8,99,73,44,30.40,30.24,6,2,12,0.00
2013-5-26,68.9,54.0,37.8,47.5,38.4,31.8,96,61,26,30.34,30.20,4,1,7,0.00
2013-5-27,66.5,59.5,50.5,55.1,49.6,43.0,89,71,56,30.23,29.99,7,3,10,0.07
2013-5-28,83.3,72.8,60.5,69.8,62.2,55.0,96,71,48,30.01,29.89,12,5,19,0.20
2013-5-29,87.0,77.3,69.7,66.1,61.2,55.7,71,59,35,30.02,29.93,9,5,13,0.00
2013-5-30,87.5,76.7,64.6,70.2,64.7,61.8,93,68,47,30.11,29.97,7,3,12,0.00
2013-5-31,85.4,73.5,66.0,72.8,65.5,62.2,97,77,53,30.02,29.88,11,4,14,0.50
2013-6-1,82.2,72.0,66.0,70.5,67.1,65.2,98,85,65,29.94,29.70,12,5,19,0.08
2013-6-2,75.7,70.4,65.5,67.9,62.9,59.3,95,78,59,29.87,29.72,7,4,11,0.00
2013-6-3,66.9,59.8,50.6,59.1,53.6,46.2,92,81,58,30.06,29.87,5,2,8,0.00
2013-6-4,74.9,60.9,42.6,53.6,46.6,39.9,94,63,39,30.16,30.06,4,1,6,0.00
2013-6-5,81.6,67.9,54.2,60.4,52.1,45.1,74,58,40,30.11,29.85,5,2,8,0.00
2013-6-6,67.9,62.5,57.3,65.5,61.0,56.8,99,95,70,29.86,29.74,5,2,9,0.33
2013-6-7,60.4,57.2,55.2,56.7,55.4,54.5,99,94,85,29.88,29.80,4,2,9,0.00
2013-6-8,75.8,64.0,51.8,59.3,55.7,51.3,99,77,50,30.04,29.87,4,1,7,0.00
2013-6-9,82.4,72.1,60.6,66.5,61.9,57.3,89,72,46,30.07,29.90,5,2,10,0.01
2013-6-10,77.9,68.9,63.7,68.3,65.3,61.9,98,89,63,29.89,29.71,7,3,9,0.81
2013-6-11,82.4,72.0,62.7,67.5,64.5,61.8,98,79,52,29.91,29.77,6,3,10,0.00
2013-6-12,88.1,77.0,64.1,76.0,69.5,63.1,98,79,62,29.87,29.66,7,2,11,0.00
2013-6-13,81.2,69.8,64.2,72.9,62.5,55.2,98,79,49,29.84,29.48,9,4,10,0.58
2013-6-14,75.2,66.2,57.0,60.6,58.0,55.5,98,76,55,30.03,29.85,6,2,11,0.00
2013-6-15,57.1,54.8,51.7,55.7,53.8,51.2,99,96,94,30.06,30.01,0,0,1,0.00
2013-6-16,77.4,71.8,67.2,68.0,65.5,62.0,95,81,72,29.93,29.87,7,4,0,0.06
2013-6-17,84.8,74.3,66.2,71.7,66.8,62.1,98,79,47,29.93,29.84,4,1,0,0.10
2013-6-18,78.8,71.0,61.1,69.0,64.8,56.2,97,82,61,29.96,29.80,6,2,0,0.00
2013-6-19,77.2,65.6,54.9,56.1,52.2,47.1,97,66,35,30.11,29.96,5,2,0,0.00
2013-6-20,84.1,70.4,55.6,59.0,54.9,51.6,87,61,39,30.19,30.11,3,1,0,0.00
2013-6-21,86.1,73.6,56.8,66.8,60.2,55.7,97,66,39,30.20,30.08,5,1,0,0.00
2013-6-22,88.6,75.9,63.9,71.5,67.1,61.8,95,76,55,30.11,29.99,5,2,0,0.00
2013-6-23,89.0,75.9,65.1,72.0,66.8,62.0,99,77,46,30.09,29.97,8,2,11,0.00
2013-6-24,86.0,76.5,63.0,71.1,67.1,62.1,98,75,53,30.09,29.95,7,3,9,0.01
2013-6-25,89.3,78.6,70.1,77.2,71.2,67.7,98,79,58,30.01,29.82,8,4,12,0.24
2013-6-26,85.2,74.1,66.3,73.3,69.1,64.7,98,86,63,29.86,29.73,7,3,11,0.49
2013-6-27,84.4,72.4,68.0,73.1,69.0,66.8,99,90,65,29.75,29.62,6,1,12,0.12
2013-6-28,81.3,73.0,63.1,70.5,66.0,58.1,95,80,54,29.61,29.49,7,2,15,0.11
2013-6-29,78.7,65.8,59.2,68.4,62.6,58.8,99,90,66,29.65,29.51,6,1,7,2.11
2013-6-30,78.6,67.2,59.7,69.8,64.3,59.4,100,91,68,29.82,29.65,5,2,10,0.00
2013-7-1,79.4,69.9,64.7,70.4,65.8,62.2,98,87,66,29.90,29.79,7,2,8,0.12
2013-7-2,83.0,73.5,67.2,71.0,67.7,65.2,95,83,63,29.99,29.88,4,1,6,0.00
2013-7-3,83.6,79.6,69.4,71.0,68.7,67.2,99,70,59,30.07,30.02,6,3,10,0.00
2013-7-4,76.2,72.3,70.2,70.2,69.2,68.3,97,90,77,30.12,30.06,6,2,10,0.10
2013-7-5,78.2,71.0,66.6,70.5,68.4,65.7,99,92,74,30.12,30.04,4,2,6,0.91
2013-7-6,80.4,71.7,69.6,72.8,69.8,66.8,99,94,77,30.11,29.98,7,1,11,0.15
2013-7-7,79.9,70.8,64.2,69.3,66.2,61.9,98,86,65,30.07,29.97,5,2,8,0.31
2013-7-8,80.6,71.0,63.7,75.6,69.3,63.1,99,95,84,30.08,30.00,6,1,10,1.36
2013-7-9,87.7,75.9,71.7,77.5,72.8,70.8,99,91,71,30.02,29.92,8,3,9,0.40
2013-7-10,88.8,74.9,65.8,78.6,72.0,65.3,99,92,69,29.95,29.75,12,3,18,0.81
2013-7-11,76.7,68.6,61.7,67.8,64.7,57.1,99,88,62,29.98,29.89,6,2,10,0.13
2013-7-12,78.5,67.7,57.2,65.5,60.4,56.1,97,79,56,30.06,29.98,6,2,15,0.00
2013-7-13,84.3,73.7,62.2,70.1,66.4,61.6,98,79,59,30.13,30.04,6,2,11,0.00
2013-7-14,88.6,78.0,67.4,75.8,71.1,65.9,95,80,63,30.20,30.12,4,1,8,0.00
2013-7-15,91.7,79.0,72.6,76.8,72.6,69.5,96,82,51,30.26,30.18,3,0,7,0.00
2013-7-16,92.5,82.1,70.5,77.0,73.7,70.2,100,78,53,30.28,30.19,3,1,5,0.00
2013-7-17,91.7,82.2,72.0,76.7,74.3,71.7,99,79,55,30.26,30.11,4,1,7,0.00
2013-7-18,91.3,82.1,71.9,78.6,75.1,71.3,99,81,59,30.13,29.96,6,1,7,0.00
2013-7-19,89.0,80.4,72.1,76.2,73.8,71.2,98,82,62,29.97,29.82,7,3,12,0.00
2013-7-20,79.8,75.0,68.9,73.7,71.5,66.8,96,89,78,29.89,29.77,7,2,12,0.12
2013-7-21,84.5,76.1,69.2,74.1,70.4,68.6,98,84,61,29.93,29.84,3,0,4,0.00
2013-7-22,76.6,71.8,68.4,71.6,69.0,67.8,98,91,82,29.89,29.72,3,1,5,1.02
2013-7-23,75.4,68.5,66.0,71.9,67.8,65.7,100,98,78,29.75,29.71,4,1,10,0.01
2013-7-24,72.9,67.9,59.3,67.2,59.6,54.7,95,76,56,29.96,29.74,6,3,11,0.00
2013-7-25,76.8,67.6,50.8,58.7,54.7,50.1,98,66,44,30.06,30.00,6,2,9,0.00
2013-7-26,80.4,69.0,53.8,63.0,58.5,53.0,98,72,45,30.07,29.93,5,2,8,0.00
2013-7-27,74.7,67.7,62.0,67.9,64.2,59.2,97,89,63,29.93,29.77,7,4,11,0.31
2013-7-28,69.2,65.6,57.6,59.6,54.6,51.3,97,69,57,30.01,29.84,7,4,11,0.00
2013-7-29,73.5,65.2,58.4,60.9,56.6,53.6,95,75,54,30.16,30.01,5,1,8,0.00
2013-7-30,78.5,67.0,54.2,64.8,59.7,53.9,99,80,55,30.21,30.10,2,0,3,0.00
2013-7-31,73.7,68.1,65.3,68.0,64.9,62.6,97,90,79,30.10,29.91,4,1,7,0.07
2013-8-1,78.8,70.8,63.5,66.7,64.2,61.3,98,81,55,29.91,29.87,5,2,8,0.07
2013-8-2,78.0,68.4,56.5,66.1,61.5,56.2,99,80,52,30.00,29.88,9,2,12,0.01
2013-8-3,79.5,69.2,60.9,68.6,64.7,59.5,99,87,58,29.97,29.91,5,1,10,0.30
2013-8-4,74.5,66.1,56.1,61.0,58.5,54.7,99,79,54,30.09,29.97,5,2,12,0.00
2013-8-5,76.2,64.4,51.6,61.3,57.1,51.3,99,80,52,30.11,29.96,4,0,7,0.00
2013-8-6,81.7,71.3,62.2,65.6,61.2,58.1,89,72,52,29.98,29.89,6,1,8,0.00
2013-8-7,84.6,73.6,65.1,75.6,68.6,63.2,95,85,68,29.90,29.82,5,1,7,0.01
2013-8-8,82.6,73.4,67.8,75.6,71.7,67.5,99,95,78,29.91,29.85,5,1,9,0.59
2013-8-9,78.8,70.3,63.7,70.5,67.1,62.7,100,91,60,29.99,29.85,4,1,6,0.41
2013-8-10,83.1,72.7,63.5,69.0,66.2,63.2,100,82,55,30.07,29.99,5,1,6,0.00
2013-8-11,82.3,70.5,62.3,73.0,65.7,61.1,98,86,62,30.06,29.98,4,1,8,0.00
2013-8-12,83.3,72.6,61.3,70.6,65.9,61.0,100,81,60,30.03,29.82,5,1,6,0.00
2013-8-13,74.2,67.7,54.0,67.0,61.2,50.8,97,81,57,29.99,29.77,6,2,13,0.00
2013-8-14,67.8,57.6,49.3,54.9,51.6,47.9,97,82,62,30.15,29.99,3,1,8,0.00
2013-8-15,74.5,60.8,48.3,58.2,52.7,48.0,99,78,48,30.18,30.08,2,1,5,0.01
2013-8-16,75.7,64.0,51.3,59.0,55.1,50.2,97,75,50,30.15,30.10,4,1,11,0.00
2013-8-17,79.2,65.2,56.6,64.8,57.8,54.0,91,78,52,30.18,30.12,4,1,9,0.00
2013-8-18,79.5,66.7,56.7,67.8,62.0,55.7,98,86,65,30.16,30.07,4,1,6,0.00
2013-8-19,82.6,71.1,61.6,68.1,63.2,59.5,99,80,47,30.10,30.03,4,1,5,0.00
2013-8-20,85.6,71.3,58.2,69.3,63.7,57.9,100,80,49,30.15,30.07,2,1,5,0.00
2013-8-21,83.4,73.8,60.5,71.6,67.3,60.2,100,81,62,30.13,30.03,3,1,5,0.00
2013-8-22,83.3,72.8,63.4,72.5,67.8,62.7,98,85,69,30.07,29.95,5,2,7,0.00
2013-8-23,82.5,73.2,60.7,70.1,65.8,57.4,98,79,56,30.12,29.97,4,2,11,0.14
2013-8-24,83.7,68.6,55.6,62.9,58.0,53.4,94,72,41,30.26,30.12,3,1,6,0.00
2013-8-25,85.3,73.2,56.9,65.8,60.1,55.8,98,67,41,30.31,30.17,6,2,10,0.00
2013-8-26,85.5,73.7,59.2,70.7,65.4,58.3,98,77,56,30.21,30.00,5,2,8,0.00
2013-8-27,85.4,77.2,67.9,75.6,71.8,66.8,97,84,68,30.00,29.88,7,2,8,0.00
2013-8-28,84.5,79.2,72.4,75.8,73.5,70.5,95,83,72,29.90,29.76,7,3,9,0.04
2013-8-29,86.0,75.8,68.8,72.7,70.4,67.9,99,85,59,30.00,29.91,3,1,8,0.00
2013-8-30,86.9,74.5,64.5,73.2,68.7,64.5,100,84,55,29.96,29.79,5,1,9,0.01
2013-8-31,86.4,76.2,68.4,75.5,71.3,67.5,98,86,67,29.80,29.72,9,2,11,0.20
2013-9-1,84.0,75.8,66.5,72.7,69.5,65.8,99,82,64,29.77,29.69,6,2,8,0.00
2013-9-2,81.6,72.8,64.5,73.3,67.9,59.6,100,85,69,29.83,29.72,6,2,11,0.00
2013-9-3,65.9,60.0,53.2,59.5,54.9,52.4,99,84,72,30.04,29.83,4,2,8,0.00
2013-9-4,80.4,65.2,48.3,61.0,56.6,48.0,100,77,49,30.12,30.03,5,1,8,0.00
2013-9-5,78.6,67.0,54.8,65.4,56.9,46.9,98,73,41,30.19,30.07,5,2,9,0.00
2013-9-6,78.6,60.0,45.7,54.0,48.9,44.1,99,73,31,30.25,30.09,3,0,6,0.00
2013-9-7,84.9,68.2,48.5,66.8,58.8,48.0,99,75,52,30.09,29.90,5,1,7,0.00
2013-9-8,79.8,72.0,64.2,70.4,66.5,61.5,95,83,70,29.99,29.89,4,2,7,0.00
2013-9-9,88.5,75.6,61.3,71.1,66.3,59.6,95,75,54,30.01,29.91,7,3,11,0.00
2013-9-10,93.4,82.7,71.7,76.0,72.7,68.9,91,73,52,30.05,29.97,7,3,10,0.00
2013-9-11,87.0,77.7,71.8,75.0,71.7,68.3,96,82,63,30.08,29.94,5,2,6,0.14
2013-9-12,78.0,70.1,59.5,71.6,67.2,58.4,99,91,60,29.94,29.79,7,2,10,0.78
2013-9-13,62.1,56.9,50.1,58.5,50.8,47.0,97,81,64,30.07,29.86,6,3,10,0.01
2013-9-14,70.3,55.0,42.6,50.5,46.2,41.6,97,75,45,30.17,30.07,4,1,7,0.00
2013-9-15,73.1,59.3,44.5,58.1,50.6,44.0,99,76,46,30.15,30.01,5,1,8,0.08
2013-9-16,71.1,61.2,51.3,59.1,54.5,48.6,99,80,53,30.29,30.08,5,2,8,0.07
2013-9-17,73.2,58.5,44.3,55.8,50.9,43.8,99,78,49,30.34,30.19,4,1,9,0.01
2013-9-18,76.9,62.2,54.7,63.5,57.6,51.3,94,86,61,30.18,30.02,4,1,7,0.00
2013-9-19,72.4,67.0,64.5,68.6,65.4,63.0,99,95,87,30.07,29.95,3,2,6,0.00
2013-9-20,85.4,74.2,66.2,72.3,68.3,65.9,100,84,58,29.97,29.73,8,4,14,0.40
2013-9-21,70.5,64.0,54.5,67.7,58.7,49.4,100,84,56,29.83,29.63,5,2,6,1.77
2013-9-22,63.5,55.5,45.6,49.5,46.8,43.4,97,74,53,30.02,29.82,5,2,7,0.00
2013-9-23,63.5,52.0,41.4,50.9,45.6,40.9,99,81,56,30.14,30.02,4,1,7,0.01
2013-9-24,70.0,54.2,41.1,51.9,47.0,40.8,99,80,49,30.12,29.94,3,1,5,0.00
2013-9-25,72.0,57.2,45.7,56.8,50.5,45.2,99,81,52,29.96,29.87,4,1,4,0.01
2013-9-26,77.7,62.2,48.8,58.9,50.3,44.9,99,71,32,30.07,29.92,5,1,7,0.00
2013-9-27,76.1,59.1,45.3,58.8,50.9,44.2,97,77,47,30.17,30.07,4,1,9,0.00
2013-9-28,77.9,64.0,50.5,59.4,54.5,49.4,97,74,45,30.18,30.05,4,1,7,0.00
2013-9-29,73.5,62.7,55.6,62.1,58.2,53.9,97,86,64,30.05,29.95,6,1,7,0.00
2013-9-30,71.5,65.0,60.9,63.4,60.5,58.6,96,86,73,30.00,29.92,5,2,8,0.01
2013-10-1,77.6,66.3,55.0,64.9,60.1,54.7,100,82,59,30.06,29.97,6,2,10,0.00
2013-10-2,81.3,68.3,56.4,69.1,63.7,55.8,99,87,61,30.08,29.99,3,1,4,0.00
2013-10-3,76.7,69.1,64.0,70.7,66.9,63.4,100,93,74,30.04,29.97,5,1,5,0.25
2013-10-4,79.0,70.0,63.2,70.8,67.7,62.9,100,93,71,30.05,29.99,4,1,7,0.29
2013-10-5,78.6,70.2,64.8,74.5,68.7,64.5,100,95,83,30.02,29.89,5,1,9,0.31
2013-10-6,76.2,68.2,51.6,68.8,65.6,50.9,100,92,73,29.90,29.65,7,4,14,1.59
2013-10-7,60.1,52.0,44.8,52.8,47.0,43.7,99,84,59,30.13,29.74,7,3,10,0.37
2013-10-8,68.3,52.0,38.8,51.4,45.2,38.5,100,81,48,30.29,30.15,3,1,6,0.01
2013-10-9,70.9,51.6,44.7,49.6,45.8,43.8,98,84,41,30.25,30.18,3,0,8,0.00
2013-10-10,77.1,58.0,40.7,54.9,47.4,39.6,99,72,40,30.19,30.06,2,0,3,0.01
2013-10-11,76.9,60.7,44.7,56.6,48.9,43.6,98,69,35,30.10,30.00,4,1,9,0.00
2013-10-12,73.7,62.4,50.5,62.9,57.5,49.7,99,85,67,30.10,30.03,4,1,7,0.00
2013-10-13,65.8,61.1,52.9,61.2,58.3,52.4,99,91,79,30.27,30.10,4,1,8,0.00
2013-10-14,70.6,54.5,47.2,53.1,49.7,46.3,99,86,52,30.31,30.19,3,1,5,0.01
2013-10-15,67.0,59.4,47.5,62.8,57.1,46.1,99,92,86,30.20,29.92,4,2,7,0.00
2013-10-16,65.5,62.5,50.7,63.4,60.1,47.9,98,92,77,29.92,29.83,6,3,6,0.20
2013-10-17,52.8,47.9,38.9,49.9,45.7,38.6,100,92,84,29.95,29.81,6,2,10,0.11
2013-10-18,63.2,52.5,39.9,49.8,44.4,39.1,99,76,51,30.03,29.92,8,3,18,0.00
2013-10-19,48.2,45.5,40.5,44.9,43.5,38.6,96,93,85,29.97,29.80,5,1,10,0.21
2013-10-20,61.1,49.9,35.7,44.5,40.9,34.7,97,73,51,30.02,29.97,9,4,13,0.01
2013-10-21,65.3,54.3,43.7,49.6,41.9,39.1,87,65,40,30.00,29.85,10,5,18,0.00
2013-10-22,50.7,42.6,34.1,41.6,33.0,28.1,92,70,42,30.01,29.89,5,2,9,0.08
2013-10-23,45.6,38.9,33.5,38.5,35.7,32.6,98,89,65,30.01,29.79,6,2,9,0.34
2013-10-24,44.9,36.3,31.3,34.4,32.5,29.7,96,87,55,30.21,30.00,5,2,7,0.00
2013-10-25,46.3,37.9,29.3,37.2,30.6,27.5,94,76,52,30.41,30.23,5,2,12,0.01
2013-10-26,46.3,41.1,30.8,38.5,31.2,27.1,87,68,53,30.26,29.92,13,6,22,0.00
2013-10-27,54.6,42.7,29.5,40.7,34.3,28.8,98,75,45,30.12,30.04,6,1,10,0.00
2013-10-28,60.4,39.7,29.2,39.1,33.4,28.6,98,82,39,30.31,30.10,3,0,3,0.00
2013-10-29,58.5,47.1,34.3,44.3,40.0,33.8,99,78,53,30.38,30.22,2,0,2,0.01
2013-10-30,64.1,56.1,44.1,58.7,50.9,39.9,98,83,68,30.23,30.01,4,1,7,0.00
2013-10-31,65.3,61.4,58.8,61.2,59.0,57.4,99,92,76,30.01,29.29,11,7,20,0.95
2013-11-1,63.2,54.7,49.3,62.0,50.0,43.3,97,84,63,29.70,29.27,12,6,18,0.16
2013-11-2,51.8,47.7,42.2,44.3,42.2,38.9,96,82,63,30.05,29.69,7,3,10,0.06
2013-11-3,52.8,42.6,37.6,40.9,37.9,32.7,98,85,52,30.42,30.05,3,1,6,0.00
2013-11-4,52.8,43.7,33.6,39.3,33.8,27.8,87,70,52,30.47,30.35,5,2,5,0.00
2013-11-5,59.0,52.7,47.9,44.7,41.5,39.0,76,66,58,30.42,30.24,5,2,7,0.00
2013-11-6,65.1,56.2,48.0,58.4,47.5,37.3,97,74,53,30.24,29.92,9,5,14,0.34
2013-11-7,46.2,42.2,37.6,45.2,35.1,29.6,97,77,57,30.18,29.97,7,4,18,0.10
2013-11-8,45.1,36.8,30.6,35.0,31.8,28.4,96,83,56,30.35,30.16,4,2,11,0.00
2013-11-9,58.9,47.4,34.0,39.5,34.3,30.2,89,62,45,30.27,29.97,14,7,22,0.00
2013-11-10,48.4,42.5,32.8,40.5,33.4,29.6,90,71,55,30.33,30.02,7,4,18,0.00
2013-11-11,49.8,39.8,28.2,39.3,32.2,26.8,96,77,47,30.30,30.07,8,4,12,0.03
2013-11-12,31.6,27.9,24.2,29.2,24.0,21.3,97,86,74,30.60,30.26,6,3,13,0.00
2013-11-13,37.5,29.6,20.7,24.0,20.8,18.1,92,71,46,30.63,30.39,8,4,12,0.00
2013-11-14,51.8,39.1,27.8,27.2,23.4,21.8,79,56,32,30.38,30.16,10,6,15,0.01
2013-11-15,51.0,45.2,37.9,40.7,27.8,22.5,83,51,41,30.18,30.10,10,5,15,0.00
2013-11-16,59.6,51.8,43.0,53.8,47.6,39.4,89,85,80,30.16,29.91,9,4,14,0.00
2013-11-17,60.9,58.4,50.8,59.2,55.2,42.5,97,90,64,29.91,29.44,14,8,21,0.97
2013-11-18,49.3,43.7,35.5,41.7,35.7,28.0,86,74,56,30.14,29.71,10,6,18,0.00
2013-11-19,40.7,35.2,28.5,29.1,26.8,25.1,88,72,57,30.40,30.16,5,2,9,0.00
2013-11-20,47.7,37.2,27.1,32.1,28.0,23.5,87,70,52,30.41,30.28,5,2,10,0.00
2013-11-21,54.1,47.4,38.2,45.1,39.0,29.0,92,73,56,30.37,30.20,4,2,8,0.17
2013-11-22,51.5,45.9,33.9,51.2,44.2,29.8,99,94,78,30.34,30.14,8,4,13,0.32
2013-11-23,34.9,29.4,19.8,29.9,25.4,10.0,96,86,59,30.52,30.29,9,3,15,0.00
2013-11-24,24.7,19.2,14.8,14.8,10.5,7.3,91,69,52,30.67,30.52,7,3,12,0.00
2013-11-25,35.6,26.5,16.2,29.5,17.0,12.6,96,69,49,30.55,30.23,11,4,15,0.00
2013-11-26,32.4,30.8,29.6,31.4,29.8,28.9,97,96,94,30.23,29.92,5,2,7,0.01
2013-11-27,27.7,26.5,24.8,22.2,16.7,13.8,89,67,57,30.12,29.98,8,6,12,0.00
2013-11-28,29.8,26.4,21.3,22.4,20.2,18.3,89,78,68,30.46,30.26,6,3,11,0.00
2013-11-29,35.5,27.4,17.3,22.4,20.3,15.6,95,75,55,30.65,30.46,3,1,7,0.01
2013-11-30,42.9,33.2,26.3,31.1,26.5,21.3,85,76,61,30.59,30.20,6,2,7,0.01
2013-12-1,46.1,39.8,33.7,36.6,32.5,28.2,83,75,67,30.19,29.99,7,3,12,0.00
2013-12-2,42.0,36.8,32.3,36.9,34.2,31.1,96,90,80,29.96,29.84,3,1,5,0.03
2013-12-3,52.1,43.5,35.3,45.8,40.7,34.5,97,90,78,29.89,29.83,4,1,6,0.03
2013-12-4,61.2,54.1,46.1,54.3,49.5,43.5,92,84,77,29.91,29.75,5,2,9,0.00
2013-12-5,62.5,51.9,32.6,59.5,47.8,30.8,96,86,73,30.12,29.74,8,5,11,0.08
2013-12-6,32.4,28.5,24.9,30.6,27.2,23.7,97,95,91,30.39,30.09,5,2,10,0.00
2013-12-7,25.7,22.0,12.9,23.3,16.5,11.0,94,80,67,30.63,30.39,5,2,10,0.00
2013-12-8,30.6,23.0,12.8,29.9,19.7,11.2,97,87,81,30.59,30.05,7,3,13,0.00
2013-12-9,33.1,30.1,24.3,32.6,27.1,19.9,98,89,81,30.23,30.00,8,5,13,0.00
2013-12-10,25.5,21.5,18.3,19.5,15.3,12.3,94,78,61,30.35,30.13,12,5,15,0.00
2013-12-11,30.3,21.7,14.3,22.6,16.4,10.9,87,80,67,30.49,30.30,8,4,14,0.00
2013-12-12,18.7,15.0,6.7,8.7,5.1,0.2,90,66,46,30.55,30.34,10,5,17,0.00
2013-12-13,32.2,27.1,16.6,24.2,18.6,11.5,81,70,58,30.33,30.23,5,2,10,0.00
2013-12-14,36.6,33.1,29.7,36.1,32.2,24.8,98,97,74,30.25,29.71,6,2,9,0.42
2013-12-15,28.3,23.6,20.1,27.8,20.5,14.1,98,88,74,30.12,29.80,11,5,14,0.00
2013-12-16,27.9,21.1,17.2,26.9,17.6,15.0,96,86,77,30.20,30.03,4,2,18,0.00
2013-12-17,31.8,27.2,23.9,30.5,24.3,21.4,96,89,82,30.12,29.99,7,4,13,0.00
2013-12-18,30.6,26.5,23.4,24.3,21.3,17.0,92,81,65,30.23,30.07,8,5,11,0.00
2013-12-19,48.5,41.5,31.3,38.3,30.8,20.9,75,66,60,30.10,29.97,9,6,13,0.05
2013-12-20,57.0,52.0,47.3,55.6,45.4,34.4,97,79,60,29.96,29.82,11,8,19,0.05
2013-12-21,66.9,58.8,52.6,62.4,57.9,52.3,100,97,84,29.82,29.43,14,6,21,1.45
2013-12-22,66.2,54.8,40.6,61.9,50.5,39.0,100,86,69,29.97,29.45,14,8,21,0.80
2013-12-23,39.6,32.2,26.5,38.6,26.6,19.6,96,80,71,30.36,30.00,7,4,13,0.00
2013-12-24,26.4,15.8,9.3,21.7,11.0,6.2,93,81,75,30.60,30.33,6,4,10,0.00
2013-12-25,30.3,22.6,10.0,26.3,15.4,8.1,93,75,52,30.57,30.25,9,4,13,0.00
2013-12-26,35.7,31.2,26.9,27.4,22.9,17.1,86,72,48,30.36,30.17,9,5,0,0.00
2013-12-27,44.7,37.3,30.9,32.5,28.4,23.9,77,70,62,30.40,30.26,6,5,0,0.00
2013-12-28,50.9,41.5,32.8,36.4,32.0,28.2,85,70,57,30.26,30.02,10,5,11,0.00
2013-12-29,42.4,39.4,31.6,40.3,35.1,28.2,97,86,58,30.03,29.75,8,3,13,0.30
2013-12-30,31.6,25.6,22.9,28.0,20.6,17.8,87,81,74,30.25,29.97,7,3,17,0.00
2013-12-31,25.6,22.5,19.7,20.1,16.9,14.9,88,79,70,30.37,30.14,10,5,15,0.00
2014-1-1,38.3,30.1,19.9,29.3,24.8,17.3,92,81,68,30.34,30.08,5,1,8,0.00
2014-1-2,27.3,20.8,9.0,24.5,18.5,6.2,95,91,84,30.21,29.81,10,4,18,0.00